Terminal Aerodrome Forecast
Issued by NWS Amarillo, TX

Home | Current Version | Previous Version | Text Only | Print | Product List | Glossary On
Versions: 1 2 3 4 5 6 7 8 9 10 11 12
467
FTUS44 KAMA 021720
TAFDHT
TAF
KDHT 021720Z 0218/0318 08012KT P6SM BKN050
     FM022100 04010KT 6SM -RASN OVC030
     FM030000 03015KT 2SM -SN OVC005
     FM031200 08008KT P6SM OVC008=

USA.gov is the U.S. government's official web portal to all federal, state and local government web resources and services.